sensor_id;sensor_type;location;lat;lon;timestamp;temperature;humidity
32706;DHT22;19094;50.972;3.538;2023-05-14T00:00:50;18.90;63.90
32706;DHT22;19094;50.972;3.538;2023-05-14T00:03:16;18.90;64.00
32706;DHT22;19094;50.972;3.538;2023-05-14T00:05:42;18.90;64.10
32706;DHT22;19094;50.972;3.538;2023-05-14T00:08:07;18.90;64.10
32706;DHT22;19094;50.972;3.538;2023-05-14T00:10:33;18.90;64.00
32706;DHT22;19094;50.972;3.538;2023-05-14T00:12:59;18.90;63.90
32706;DHT22;19094;50.972;3.538;2023-05-14T00:15:24;18.90;63.70
32706;DHT22;19094;50.972;3.538;2023-05-14T00:17:50;18.90;64.40
32706;DHT22;19094;50.972;3.538;2023-05-14T00:20:16;18.90;64.00
32706;DHT22;19094;50.972;3.538;2023-05-14T00:22:41;18.90;64.00
32706;DHT22;19094;50.972;3.538;2023-05-14T00:25:07;18.90;64.10
32706;DHT22;19094;50.972;3.538;2023-05-14T00:27:34;18.90;64.60
32706;DHT22;19094;50.972;3.538;2023-05-14T00:30:00;18.80;64.10
32706;DHT22;19094;50.972;3.538;2023-05-14T00:32:26;18.90;64.20
32706;DHT22;19094;50.972;3.538;2023-05-14T00:34:51;18.80;63.90
32706;DHT22;19094;50.972;3.538;2023-05-14T00:37:17;18.90;63.70
32706;DHT22;19094;50.972;3.538;2023-05-14T00:39:43;18.80;63.80
32706;DHT22;19094;50.972;3.538;2023-05-14T00:42:08;18.80;64.80
32706;DHT22;19094;50.972;3.538;2023-05-14T00:44:34;18.80;64.10
32706;DHT22;19094;50.972;3.538;2023-05-14T00:47:00;18.80;64.50
32706;DHT22;19094;50.972;3.538;2023-05-14T00:49:26;18.80;64.60
32706;DHT22;19094;50.972;3.538;2023-05-14T00:51:53;18.80;65.30
32706;DHT22;19094;50.972;3.538;2023-05-14T00:54:19;18.80;64.80
32706;DHT22;19094;50.972;3.538;2023-05-14T00:56:45;18.80;65.00
32706;DHT22;19094;50.972;3.538;2023-05-14T00:59:11;18.80;64.80
32706;DHT22;19094;50.972;3.538;2023-05-14T01:01:37;18.90;64.80
32706;DHT22;19094;50.972;3.538;2023-05-14T01:04:05;18.80;64.70
32706;DHT22;19094;50.972;3.538;2023-05-14T01:07:24;18.90;65.10
32706;DHT22;19094;50.972;3.538;2023-05-14T01:18:03;18.80;65.40
32706;DHT22;19094;50.972;3.538;2023-05-14T01:20:29;18.80;64.90
32706;DHT22;19094;50.972;3.538;2023-05-14T01:22:54;18.80;65.10
32706;DHT22;19094;50.972;3.538;2023-05-14T01:25:20;18.80;65.10
32706;DHT22;19094;50.972;3.538;2023-05-14T01:30:37;18.80;64.60
32706;DHT22;19094;50.972;3.538;2023-05-14T01:33:13;18.80;64.30
32706;DHT22;19094;50.972;3.538;2023-05-14T01:35:39;18.80;64.60
32706;DHT22;19094;50.972;3.538;2023-05-14T01:38:10;18.80;65.10
32706;DHT22;19094;50.972;3.538;2023-05-14T01:40:37;18.80;64.70
32706;DHT22;19094;50.972;3.538;2023-05-14T01:43:04;18.80;65.70
32706;DHT22;19094;50.972;3.538;2023-05-14T01:45:30;18.80;65.20
32706;DHT22;19094;50.972;3.538;2023-05-14T01:47:56;18.80;64.80
32706;DHT22;19094;50.972;3.538;2023-05-14T01:50:22;18.70;65.00
32706;DHT22;19094;50.972;3.538;2023-05-14T01:52:48;18.70;65.00
32706;DHT22;19094;50.972;3.538;2023-05-14T01:55:14;18.70;65.10
32706;DHT22;19094;50.972;3.538;2023-05-14T01:57:40;18.70;64.50
32706;DHT22;19094;50.972;3.538;2023-05-14T02:00:06;18.70;64.90
32706;DHT22;19094;50.972;3.538;2023-05-14T02:02:32;18.70;65.00
32706;DHT22;19094;50.972;3.538;2023-05-14T02:04:57;18.70;64.90
32706;DHT22;19094;50.972;3.538;2023-05-14T02:07:26;18.70;64.80
32706;DHT22;19094;50.972;3.538;2023-05-14T02:09:52;18.70;64.40
32706;DHT22;19094;50.972;3.538;2023-05-14T02:12:17;18.70;64.30
32706;DHT22;19094;50.972;3.538;2023-05-14T02:14:43;18.60;64.40
32706;DHT22;19094;50.972;3.538;2023-05-14T02:17:08;18.60;64.40
32706;DHT22;19094;50.972;3.538;2023-05-14T02:19:34;18.60;64.50
32706;DHT22;19094;50.972;3.538;2023-05-14T02:22:00;18.60;64.50
32706;DHT22;19094;50.972;3.538;2023-05-14T02:24:28;18.60;64.30
32706;DHT22;19094;50.972;3.538;2023-05-14T02:26:53;18.60;64.60
32706;DHT22;19094;50.972;3.538;2023-05-14T02:29:19;18.50;64.80
32706;DHT22;19094;50.972;3.538;2023-05-14T02:31:45;18.60;65.10
32706;DHT22;19094;50.972;3.538;2023-05-14T02:34:10;18.60;64.70
32706;DHT22;19094;50.972;3.538;2023-05-14T02:36:36;18.60;64.70
32706;DHT22;19094;50.972;3.538;2023-05-14T02:39:02;18.60;65.40
32706;DHT22;19094;50.972;3.538;2023-05-14T02:41:29;18.60;65.40
32706;DHT22;19094;50.972;3.538;2023-05-14T02:43:54;18.50;65.70
32706;DHT22;19094;50.972;3.538;2023-05-14T02:46:20;18.40;65.90
32706;DHT22;19094;50.972;3.538;2023-05-14T02:48:46;18.40;65.90
32706;DHT22;19094;50.972;3.538;2023-05-14T02:51:11;18.40;66.20
32706;DHT22;19094;50.972;3.538;2023-05-14T02:53:37;18.40;65.80
32706;DHT22;19094;50.972;3.538;2023-05-14T02:56:03;18.40;65.90
32706;DHT22;19094;50.972;3.538;2023-05-14T02:58:28;18.30;65.90
32706;DHT22;19094;50.972;3.538;2023-05-14T03:00:54;18.40;66.50
32706;DHT22;19094;50.972;3.538;2023-05-14T03:03:20;18.40;66.00
32706;DHT22;19094;50.972;3.538;2023-05-14T03:05:45;18.40;66.20
32706;DHT22;19094;50.972;3.538;2023-05-14T03:08:11;18.40;66.00
32706;DHT22;19094;50.972;3.538;2023-05-14T03:10:36;18.40;66.00
32706;DHT22;19094;50.972;3.538;2023-05-14T03:13:02;18.40;66.30
32706;DHT22;19094;50.972;3.538;2023-05-14T03:15:28;18.30;65.60
32706;DHT22;19094;50.972;3.538;2023-05-14T03:17:54;18.30;66.20
32706;DHT22;19094;50.972;3.538;2023-05-14T03:20:19;18.20;66.20
32706;DHT22;19094;50.972;3.538;2023-05-14T03:22:45;18.20;66.40
32706;DHT22;19094;50.972;3.538;2023-05-14T03:25:11;18.20;66.80
32706;DHT22;19094;50.972;3.538;2023-05-14T03:27:37;18.20;66.50
32706;DHT22;19094;50.972;3.538;2023-05-14T03:30:03;18.20;66.40
32706;DHT22;19094;50.972;3.538;2023-05-14T03:32:29;18.20;66.50
32706;DHT22;19094;50.972;3.538;2023-05-14T03:34:54;18.20;66.40
32706;DHT22;19094;50.972;3.538;2023-05-14T03:37:20;18.10;66.60
32706;DHT22;19094;50.972;3.538;2023-05-14T03:39:46;18.10;66.90
32706;DHT22;19094;50.972;3.538;2023-05-14T03:42:11;18.10;66.70
32706;DHT22;19094;50.972;3.538;2023-05-14T03:44:37;18.10;66.80
32706;DHT22;19094;50.972;3.538;2023-05-14T03:47:03;18.10;66.80
32706;DHT22;19094;50.972;3.538;2023-05-14T03:49:28;18.10;66.80
32706;DHT22;19094;50.972;3.538;2023-05-14T03:51:54;18.10;66.80
32706;DHT22;19094;50.972;3.538;2023-05-14T03:54:20;18.10;66.50
32706;DHT22;19094;50.972;3.538;2023-05-14T03:56:46;18.10;66.90
32706;DHT22;19094;50.972;3.538;2023-05-14T03:59:11;18.10;66.60
32706;DHT22;19094;50.972;3.538;2023-05-14T04:01:37;18.10;66.90
32706;DHT22;19094;50.972;3.538;2023-05-14T04:04:03;18.10;66.80
32706;DHT22;19094;50.972;3.538;2023-05-14T04:06:28;18.10;66.70
32706;DHT22;19094;50.972;3.538;2023-05-14T04:08:54;18.10;66.50
32706;DHT22;19094;50.972;3.538;2023-05-14T04:11:20;18.20;66.10
32706;DHT22;19094;50.972;3.538;2023-05-14T04:13:46;18.20;65.70
32706;DHT22;19094;50.972;3.538;2023-05-14T04:16:11;18.20;65.80
32706;DHT22;19094;50.972;3.538;2023-05-14T04:18:37;18.20;65.80
32706;DHT22;19094;50.972;3.538;2023-05-14T04:21:03;18.20;65.90
32706;DHT22;19094;50.972;3.538;2023-05-14T04:23:28;18.20;65.90
32706;DHT22;19094;50.972;3.538;2023-05-14T04:25:56;18.20;66.00
32706;DHT22;19094;50.972;3.538;2023-05-14T04:28:22;18.10;66.10
32706;DHT22;19094;50.972;3.538;2023-05-14T04:30:48;18.10;66.40
32706;DHT22;19094;50.972;3.538;2023-05-14T04:33:13;18.10;66.50
32706;DHT22;19094;50.972;3.538;2023-05-14T04:35:39;18.10;66.40
32706;DHT22;19094;50.972;3.538;2023-05-14T04:38:05;18.10;66.30
32706;DHT22;19094;50.972;3.538;2023-05-14T04:40:30;18.00;66.60
32706;DHT22;19094;50.972;3.538;2023-05-14T04:42:56;18.00;67.00
32706;DHT22;19094;50.972;3.538;2023-05-14T04:45:22;17.80;67.00
32706;DHT22;19094;50.972;3.538;2023-05-14T04:47:47;17.80;67.60
32706;DHT22;19094;50.972;3.538;2023-05-14T04:50:16;17.80;67.60
32706;DHT22;19094;50.972;3.538;2023-05-14T04:52:42;17.80;67.70
32706;DHT22;19094;50.972;3.538;2023-05-14T04:55:08;17.80;67.90
32706;DHT22;19094;50.972;3.538;2023-05-14T04:57:34;17.70;68.50
32706;DHT22;19094;50.972;3.538;2023-05-14T04:59:59;17.70;68.00
32706;DHT22;19094;50.972;3.538;2023-05-14T05:02:25;17.70;68.00
32706;DHT22;19094;50.972;3.538;2023-05-14T05:04:51;17.70;68.70
32706;DHT22;19094;50.972;3.538;2023-05-14T05:07:16;17.70;68.00
32706;DHT22;19094;50.972;3.538;2023-05-14T05:09:42;17.70;68.30
32706;DHT22;19094;50.972;3.538;2023-05-14T05:12:08;17.70;68.20
32706;DHT22;19094;50.972;3.538;2023-05-14T05:14:34;17.80;68.30
32706;DHT22;19094;50.972;3.538;2023-05-14T05:17:00;17.80;67.90
32706;DHT22;19094;50.972;3.538;2023-05-14T05:19:25;17.70;68.20
32706;DHT22;19094;50.972;3.538;2023-05-14T05:21:51;17.70;67.90
32706;DHT22;19094;50.972;3.538;2023-05-14T05:24:16;17.70;67.90
32706;DHT22;19094;50.972;3.538;2023-05-14T05:26:42;17.70;68.20
32706;DHT22;19094;50.972;3.538;2023-05-14T05:29:08;17.70;68.20
32706;DHT22;19094;50.972;3.538;2023-05-14T05:31:33;17.70;68.00
32706;DHT22;19094;50.972;3.538;2023-05-14T05:33:59;17.70;68.20
32706;DHT22;19094;50.972;3.538;2023-05-14T05:36:25;17.70;68.00
32706;DHT22;19094;50.972;3.538;2023-05-14T05:38:51;17.60;68.20
32706;DHT22;19094;50.972;3.538;2023-05-14T05:41:17;17.60;68.50
32706;DHT22;19094;50.972;3.538;2023-05-14T05:43:43;17.60;68.30
32706;DHT22;19094;50.972;3.538;2023-05-14T05:46:08;17.60;68.50
32706;DHT22;19094;50.972;3.538;2023-05-14T05:48:34;17.60;68.40
32706;DHT22;19094;50.972;3.538;2023-05-14T05:51:00;17.60;68.30
32706;DHT22;19094;50.972;3.538;2023-05-14T05:53:25;17.70;68.40
32706;DHT22;19094;50.972;3.538;2023-05-14T05:55:51;17.60;68.30
32706;DHT22;19094;50.972;3.538;2023-05-14T05:58:17;17.60;68.30
32706;DHT22;19094;50.972;3.538;2023-05-14T06:00:43;17.60;68.30
32706;DHT22;19094;50.972;3.538;2023-05-14T06:03:10;17.60;68.50
32706;DHT22;19094;50.972;3.538;2023-05-14T06:05:35;17.60;68.30
32706;DHT22;19094;50.972;3.538;2023-05-14T06:08:01;17.60;68.50
32706;DHT22;19094;50.972;3.538;2023-05-14T06:10:27;17.60;68.40
32706;DHT22;19094;50.972;3.538;2023-05-14T06:12:53;17.60;68.20
32706;DHT22;19094;50.972;3.538;2023-05-14T06:15:19;17.60;68.30
32706;DHT22;19094;50.972;3.538;2023-05-14T06:17:44;17.60;68.30
32706;DHT22;19094;50.972;3.538;2023-05-14T06:20:10;17.70;68.20
32706;DHT22;19094;50.972;3.538;2023-05-14T06:22:36;17.70;68.20
32706;DHT22;19094;50.972;3.538;2023-05-14T06:25:02;17.60;68.20
32706;DHT22;19094;50.972;3.538;2023-05-14T06:27:28;17.60;68.30
32706;DHT22;19094;50.972;3.538;2023-05-14T06:29:54;17.70;68.30
32706;DHT22;19094;50.972;3.538;2023-05-14T06:32:20;17.60;68.20
32706;DHT22;19094;50.972;3.538;2023-05-14T06:34:45;17.70;69.00
32706;DHT22;19094;50.972;3.538;2023-05-14T06:37:11;17.70;69.50
32706;DHT22;19094;50.972;3.538;2023-05-14T06:39:37;17.70;69.60
32706;DHT22;19094;50.972;3.538;2023-05-14T06:42:03;17.80;68.60
32706;DHT22;19094;50.972;3.538;2023-05-14T06:44:29;17.80;68.30
32706;DHT22;19094;50.972;3.538;2023-05-14T06:46:55;17.80;68.00
32706;DHT22;19094;50.972;3.538;2023-05-14T06:49:21;17.80;68.30
32706;DHT22;19094;50.972;3.538;2023-05-14T06:51:47;17.80;68.30
32706;DHT22;19094;50.972;3.538;2023-05-14T06:54:13;17.80;68.20
32706;DHT22;19094;50.972;3.538;2023-05-14T06:56:38;17.80;67.80
32706;DHT22;19094;50.972;3.538;2023-05-14T06:59:04;17.80;67.90
32706;DHT22;19094;50.972;3.538;2023-05-14T07:01:30;17.80;68.30
32706;DHT22;19094;50.972;3.538;2023-05-14T07:03:58;17.80;68.10
32706;DHT22;19094;50.972;3.538;2023-05-14T07:06:24;17.80;68.60
32706;DHT22;19094;50.972;3.538;2023-05-14T07:08:50;17.80;68.20
32706;DHT22;19094;50.972;3.538;2023-05-14T07:11:15;17.70;68.40
32706;DHT22;19094;50.972;3.538;2023-05-14T07:13:41;17.70;68.40
32706;DHT22;19094;50.972;3.538;2023-05-14T07:16:07;17.80;68.60
32706;DHT22;19094;50.972;3.538;2023-05-14T07:18:36;17.80;68.50
32706;DHT22;19094;50.972;3.538;2023-05-14T07:21:02;17.80;68.60
32706;DHT22;19094;50.972;3.538;2023-05-14T07:23:31;17.80;68.20
32706;DHT22;19094;50.972;3.538;2023-05-14T07:25:57;17.80;68.50
32706;DHT22;19094;50.972;3.538;2023-05-14T07:28:22;17.80;67.90
32706;DHT22;19094;50.972;3.538;2023-05-14T07:30:48;17.80;68.10
32706;DHT22;19094;50.972;3.538;2023-05-14T07:33:14;17.70;68.30
32706;DHT22;19094;50.972;3.538;2023-05-14T07:35:39;17.70;68.40
32706;DHT22;19094;50.972;3.538;2023-05-14T07:38:05;17.80;68.30
32706;DHT22;19094;50.972;3.538;2023-05-14T07:40:31;17.80;68.40
32706;DHT22;19094;50.972;3.538;2023-05-14T07:42:56;17.80;68.30
32706;DHT22;19094;50.972;3.538;2023-05-14T07:45:22;17.80;68.00
32706;DHT22;19094;50.972;3.538;2023-05-14T07:47:47;17.70;68.40
32706;DHT22;19094;50.972;3.538;2023-05-14T07:50:17;17.80;68.30
32706;DHT22;19094;50.972;3.538;2023-05-14T07:52:43;17.80;68.00
32706;DHT22;19094;50.972;3.538;2023-05-14T07:55:09;17.80;68.10
32706;DHT22;19094;50.972;3.538;2023-05-14T07:57:35;17.80;68.00
32706;DHT22;19094;50.972;3.538;2023-05-14T08:00:02;17.70;68.70
32706;DHT22;19094;50.972;3.538;2023-05-14T08:02:28;17.70;68.80
32706;DHT22;19094;50.972;3.538;2023-05-14T08:04:54;17.70;68.50
32706;DHT22;19094;50.972;3.538;2023-05-14T08:07:19;17.80;68.10
32706;DHT22;19094;50.972;3.538;2023-05-14T08:09:46;17.80;68.10
32706;DHT22;19094;50.972;3.538;2023-05-14T08:12:12;17.80;67.50
32706;DHT22;19094;50.972;3.538;2023-05-14T08:14:38;17.80;67.70
32706;DHT22;19094;50.972;3.538;2023-05-14T08:17:04;17.90;67.90
32706;DHT22;19094;50.972;3.538;2023-05-14T08:19:29;18.00;67.90
32706;DHT22;19094;50.972;3.538;2023-05-14T08:21:55;18.10;67.20
32706;DHT22;19094;50.972;3.538;2023-05-14T08:24:21;18.10;67.70
32706;DHT22;19094;50.972;3.538;2023-05-14T08:26:46;18.20;67.20
32706;DHT22;19094;50.972;3.538;2023-05-14T08:29:12;18.10;67.10
32706;DHT22;19094;50.972;3.538;2023-05-14T08:31:38;18.10;67.10
32706;DHT22;19094;50.972;3.538;2023-05-14T08:34:03;18.10;66.30
32706;DHT22;19094;50.972;3.538;2023-05-14T08:36:29;18.10;66.40
32706;DHT22;19094;50.972;3.538;2023-05-14T08:38:55;18.10;66.40
32706;DHT22;19094;50.972;3.538;2023-05-14T08:41:21;18.10;66.60
32706;DHT22;19094;50.972;3.538;2023-05-14T08:44:01;18.10;66.40
32706;DHT22;19094;50.972;3.538;2023-05-14T08:46:31;18.10;66.50
32706;DHT22;19094;50.972;3.538;2023-05-14T08:49:07;18.10;67.00
32706;DHT22;19094;50.972;3.538;2023-05-14T08:51:35;18.10;66.40
32706;DHT22;19094;50.972;3.538;2023-05-14T08:54:01;18.00;66.90
32706;DHT22;19094;50.972;3.538;2023-05-14T08:56:30;18.30;66.80
32706;DHT22;19094;50.972;3.538;2023-05-14T08:58:56;18.40;65.70
32706;DHT22;19094;50.972;3.538;2023-05-14T09:01:22;18.40;65.80
32706;DHT22;19094;50.972;3.538;2023-05-14T09:03:49;18.50;65.50
32706;DHT22;19094;50.972;3.538;2023-05-14T09:06:16;18.60;65.10
32706;DHT22;19094;50.972;3.538;2023-05-14T09:08:43;18.60;64.80
32706;DHT22;19094;50.972;3.538;2023-05-14T09:11:08;18.60;65.00
32706;DHT22;19094;50.972;3.538;2023-05-14T09:13:37;18.50;64.50
32706;DHT22;19094;50.972;3.538;2023-05-14T09:16:03;18.40;66.00
32706;DHT22;19094;50.972;3.538;2023-05-14T09:18:28;18.40;66.40
32706;DHT22;19094;50.972;3.538;2023-05-14T09:20:54;18.60;65.10
32706;DHT22;19094;50.972;3.538;2023-05-14T09:23:20;18.80;63.20
32706;DHT22;19094;50.972;3.538;2023-05-14T09:25:46;18.90;62.60
32706;DHT22;19094;50.972;3.538;2023-05-14T09:28:16;19.00;61.80
32706;DHT22;19094;50.972;3.538;2023-05-14T09:30:46;19.10;61.10
32706;DHT22;19094;50.972;3.538;2023-05-14T09:33:25;19.20;61.20
32706;DHT22;19094;50.972;3.538;2023-05-14T09:35:56;18.90;63.90
32706;DHT22;19094;50.972;3.538;2023-05-14T09:38:30;19.00;63.30
32706;DHT22;19094;50.972;3.538;2023-05-14T09:40:56;19.20;62.30
32706;DHT22;19094;50.972;3.538;2023-05-14T09:43:22;19.30;61.70
32706;DHT22;19094;50.972;3.538;2023-05-14T09:45:48;19.40;61.30
32706;DHT22;19094;50.972;3.538;2023-05-14T09:48:14;19.40;61.30
32706;DHT22;19094;50.972;3.538;2023-05-14T09:50:45;19.50;61.30
32706;DHT22;19094;50.972;3.538;2023-05-14T09:53:12;19.60;60.20
32706;DHT22;19094;50.972;3.538;2023-05-14T09:55:38;19.60;60.50
32706;DHT22;19094;50.972;3.538;2023-05-14T09:58:04;19.60;60.80
32706;DHT22;19094;50.972;3.538;2023-05-14T10:00:31;19.70;59.90
32706;DHT22;19094;50.972;3.538;2023-05-14T10:02:57;19.70;60.40
32706;DHT22;19094;50.972;3.538;2023-05-14T10:05:23;19.80;59.40
32706;DHT22;19094;50.972;3.538;2023-05-14T10:07:52;19.80;60.30
32706;DHT22;19094;50.972;3.538;2023-05-14T10:10:19;19.80;59.90
32706;DHT22;19094;50.972;3.538;2023-05-14T10:12:52;19.90;59.60
32706;DHT22;19094;50.972;3.538;2023-05-14T10:15:25;19.90;59.40
32706;DHT22;19094;50.972;3.538;2023-05-14T10:17:55;19.90;60.00
32706;DHT22;19094;50.972;3.538;2023-05-14T10:20:22;19.90;59.70
32706;DHT22;19094;50.972;3.538;2023-05-14T10:22:49;20.00;59.80
32706;DHT22;19094;50.972;3.538;2023-05-14T10:25:15;20.00;59.30
32706;DHT22;19094;50.972;3.538;2023-05-14T10:27:41;20.10;59.40
32706;DHT22;19094;50.972;3.538;2023-05-14T10:30:11;20.10;59.50
32706;DHT22;19094;50.972;3.538;2023-05-14T10:32:37;20.20;59.00
32706;DHT22;19094;50.972;3.538;2023-05-14T10:35:16;20.20;58.60
32706;DHT22;19094;50.972;3.538;2023-05-14T10:37:43;20.20;59.20
32706;DHT22;19094;50.972;3.538;2023-05-14T10:40:11;20.30;58.80
32706;DHT22;19094;50.972;3.538;2023-05-14T10:42:38;20.30;58.50
32706;DHT22;19094;50.972;3.538;2023-05-14T10:45:13;20.40;59.30
32706;DHT22;19094;50.972;3.538;2023-05-14T10:47:41;20.40;58.80
32706;DHT22;19094;50.972;3.538;2023-05-14T10:50:13;20.40;59.00
32706;DHT22;19094;50.972;3.538;2023-05-14T10:52:45;20.50;58.70
32706;DHT22;19094;50.972;3.538;2023-05-14T10:55:15;20.50;59.00
32706;DHT22;19094;50.972;3.538;2023-05-14T10:57:44;20.50;58.90
32706;DHT22;19094;50.972;3.538;2023-05-14T11:00:11;20.50;58.80
32706;DHT22;19094;50.972;3.538;2023-05-14T11:02:40;20.60;58.50
32706;DHT22;19094;50.972;3.538;2023-05-14T11:05:07;20.60;58.70
32706;DHT22;19094;50.972;3.538;2023-05-14T11:12:26;20.70;58.00
32706;DHT22;19094;50.972;3.538;2023-05-14T11:14:53;20.80;58.10
32706;DHT22;19094;50.972;3.538;2023-05-14T11:17:19;20.80;57.50
32706;DHT22;19094;50.972;3.538;2023-05-14T11:19:45;20.90;57.80
32706;DHT22;19094;50.972;3.538;2023-05-14T11:22:11;21.00;57.70
32706;DHT22;19094;50.972;3.538;2023-05-14T11:24:39;21.10;57.50
32706;DHT22;19094;50.972;3.538;2023-05-14T11:27:09;21.10;57.30
32706;DHT22;19094;50.972;3.538;2023-05-14T11:29:38;21.20;57.10
32706;DHT22;19094;50.972;3.538;2023-05-14T11:32:07;21.30;57.00
32706;DHT22;19094;50.972;3.538;2023-05-14T11:34:33;21.40;56.40
32706;DHT22;19094;50.972;3.538;2023-05-14T11:37:06;21.50;56.30
32706;DHT22;19094;50.972;3.538;2023-05-14T11:39:33;21.60;56.30
32706;DHT22;19094;50.972;3.538;2023-05-14T11:42:08;21.60;56.20
32706;DHT22;19094;50.972;3.538;2023-05-14T11:44:34;21.70;56.00
32706;DHT22;19094;50.972;3.538;2023-05-14T11:47:00;21.70;55.70
32706;DHT22;19094;50.972;3.538;2023-05-14T11:49:27;21.80;55.60
32706;DHT22;19094;50.972;3.538;2023-05-14T11:52:01;21.80;55.70
32706;DHT22;19094;50.972;3.538;2023-05-14T11:54:27;21.80;55.80
32706;DHT22;19094;50.972;3.538;2023-05-14T11:56:57;21.90;55.20
32706;DHT22;19094;50.972;3.538;2023-05-14T11:59:27;22.10;55.20
32706;DHT22;19094;50.972;3.538;2023-05-14T12:01:57;22.20;55.00
32706;DHT22;19094;50.972;3.538;2023-05-14T12:04:23;22.20;54.70
32706;DHT22;19094;50.972;3.538;2023-05-14T12:06:49;22.20;54.40
32706;DHT22;19094;50.972;3.538;2023-05-14T12:09:17;22.40;54.60
32706;DHT22;19094;50.972;3.538;2023-05-14T12:11:44;22.50;54.20
32706;DHT22;19094;50.972;3.538;2023-05-14T12:16:44;22.50;54.00
32706;DHT22;19094;50.972;3.538;2023-05-14T12:19:13;22.70;53.50
32706;DHT22;19094;50.972;3.538;2023-05-14T12:21:39;22.70;53.60
32706;DHT22;19094;50.972;3.538;2023-05-14T12:24:18;22.80;53.50
32706;DHT22;19094;50.972;3.538;2023-05-14T12:26:49;22.80;52.90
32706;DHT22;19094;50.972;3.538;2023-05-14T12:29:16;23.00;52.90
32706;DHT22;19094;50.972;3.538;2023-05-14T12:31:49;23.10;52.70
32706;DHT22;19094;50.972;3.538;2023-05-14T12:34:15;23.10;52.80
32706;DHT22;19094;50.972;3.538;2023-05-14T12:36:42;23.10;52.80
32706;DHT22;19094;50.972;3.538;2023-05-14T12:39:08;23.30;52.90
32706;DHT22;19094;50.972;3.538;2023-05-14T12:41:34;23.20;52.50
32706;DHT22;19094;50.972;3.538;2023-05-14T12:44:02;23.30;52.10
32706;DHT22;19094;50.972;3.538;2023-05-14T12:46:28;23.20;52.60
32706;DHT22;19094;50.972;3.538;2023-05-14T12:48:54;23.20;52.70
32706;DHT22;19094;50.972;3.538;2023-05-14T12:51:19;23.30;52.60
32706;DHT22;19094;50.972;3.538;2023-05-14T12:53:45;23.30;52.30
32706;DHT22;19094;50.972;3.538;2023-05-14T12:56:11;23.50;52.10
32706;DHT22;19094;50.972;3.538;2023-05-14T12:58:37;23.50;52.30
32706;DHT22;19094;50.972;3.538;2023-05-14T13:01:04;23.60;51.60
32706;DHT22;19094;50.972;3.538;2023-05-14T13:03:30;23.70;51.20
32706;DHT22;19094;50.972;3.538;2023-05-14T13:05:55;23.80;51.20
32706;DHT22;19094;50.972;3.538;2023-05-14T13:08:21;23.90;50.80
32706;DHT22;19094;50.972;3.538;2023-05-14T13:10:53;23.80;51.20
32706;DHT22;19094;50.972;3.538;2023-05-14T13:13:19;23.80;50.90
32706;DHT22;19094;50.972;3.538;2023-05-14T13:15:45;24.00;50.70
32706;DHT22;19094;50.972;3.538;2023-05-14T13:18:15;23.90;50.70
32706;DHT22;19094;50.972;3.538;2023-05-14T13:20:40;24.10;50.70
32706;DHT22;19094;50.972;3.538;2023-05-14T13:23:06;24.10;50.40
32706;DHT22;19094;50.972;3.538;2023-05-14T13:25:32;24.10;50.60
32706;DHT22;19094;50.972;3.538;2023-05-14T13:27:57;24.10;50.80
32706;DHT22;19094;50.972;3.538;2023-05-14T13:30:23;24.10;50.50
32706;DHT22;19094;50.972;3.538;2023-05-14T13:32:49;24.30;50.20
32706;DHT22;19094;50.972;3.538;2023-05-14T13:35:15;24.30;50.00
32706;DHT22;19094;50.972;3.538;2023-05-14T13:37:42;24.40;49.90
32706;DHT22;19094;50.972;3.538;2023-05-14T13:40:08;24.40;50.10
32706;DHT22;19094;50.972;3.538;2023-05-14T13:42:35;24.40;49.90
32706;DHT22;19094;50.972;3.538;2023-05-14T13:45:01;24.30;50.20
32706;DHT22;19094;50.972;3.538;2023-05-14T13:47:28;24.30;50.40
32706;DHT22;19094;50.972;3.538;2023-05-14T13:49:55;24.20;50.10
32706;DHT22;19094;50.972;3.538;2023-05-14T13:52:21;24.20;50.70
32706;DHT22;19094;50.972;3.538;2023-05-14T13:54:47;24.20;50.70
32706;DHT22;19094;50.972;3.538;2023-05-14T13:57:13;24.30;50.50
32706;DHT22;19094;50.972;3.538;2023-05-14T13:59:38;24.20;50.60
32706;DHT22;19094;50.972;3.538;2023-05-14T14:02:04;24.10;50.90
32706;DHT22;19094;50.972;3.538;2023-05-14T14:04:30;24.10;50.70
32706;DHT22;19094;50.972;3.538;2023-05-14T14:06:56;24.10;50.70
32706;DHT22;19094;50.972;3.538;2023-05-14T14:09:22;24.20;50.70
32706;DHT22;19094;50.972;3.538;2023-05-14T14:11:48;24.10;50.80
32706;DHT22;19094;50.972;3.538;2023-05-14T14:14:14;24.10;50.90
32706;DHT22;19094;50.972;3.538;2023-05-14T14:16:40;24.10;51.00
32706;DHT22;19094;50.972;3.538;2023-05-14T14:19:06;24.00;51.30
32706;DHT22;19094;50.972;3.538;2023-05-14T14:21:32;24.00;51.30
32706;DHT22;19094;50.972;3.538;2023-05-14T14:23:58;23.90;51.50
32706;DHT22;19094;50.972;3.538;2023-05-14T14:26:24;23.90;51.50
32706;DHT22;19094;50.972;3.538;2023-05-14T14:28:52;24.00;51.50
32706;DHT22;19094;50.972;3.538;2023-05-14T14:31:18;23.90;51.60
32706;DHT22;19094;50.972;3.538;2023-05-14T14:33:44;23.80;51.80
32706;DHT22;19094;50.972;3.538;2023-05-14T14:36:09;23.80;51.90
32706;DHT22;19094;50.972;3.538;2023-05-14T14:38:35;23.80;52.20
32706;DHT22;19094;50.972;3.538;2023-05-14T14:41:01;23.80;51.80
32706;DHT22;19094;50.972;3.538;2023-05-14T14:43:31;23.80;51.80
32706;DHT22;19094;50.972;3.538;2023-05-14T14:45:57;23.90;51.60
32706;DHT22;19094;50.972;3.538;2023-05-14T14:48:25;23.90;51.30
32706;DHT22;19094;50.972;3.538;2023-05-14T14:50:52;23.90;51.20
32706;DHT22;19094;50.972;3.538;2023-05-14T14:53:19;24.10;50.60
32706;DHT22;19094;50.972;3.538;2023-05-14T14:55:45;24.10;50.90
32706;DHT22;19094;50.972;3.538;2023-05-14T14:58:11;24.10;50.90
32706;DHT22;19094;50.972;3.538;2023-05-14T15:00:37;24.10;51.00
32706;DHT22;19094;50.972;3.538;2023-05-14T15:03:04;24.20;50.70
32706;DHT22;19094;50.972;3.538;2023-05-14T15:05:30;24.30;50.60
32706;DHT22;19094;50.972;3.538;2023-05-14T15:07:56;24.40;50.40
32706;DHT22;19094;50.972;3.538;2023-05-14T15:10:21;24.30;50.60
32706;DHT22;19094;50.972;3.538;2023-05-14T15:12:47;24.30;50.90
32706;DHT22;19094;50.972;3.538;2023-05-14T15:15:13;24.30;50.60
32706;DHT22;19094;50.972;3.538;2023-05-14T15:17:38;24.30;50.40
32706;DHT22;19094;50.972;3.538;2023-05-14T15:20:05;24.40;50.50
32706;DHT22;19094;50.972;3.538;2023-05-14T15:22:32;24.50;50.40
32706;DHT22;19094;50.972;3.538;2023-05-14T15:24:57;24.50;50.20
32706;DHT22;19094;50.972;3.538;2023-05-14T15:27:23;24.50;49.80
32706;DHT22;19094;50.972;3.538;2023-05-14T15:29:49;24.60;49.60
32706;DHT22;19094;50.972;3.538;2023-05-14T15:32:15;24.60;49.60
32706;DHT22;19094;50.972;3.538;2023-05-14T15:34:41;24.70;49.50
32706;DHT22;19094;50.972;3.538;2023-05-14T15:37:07;24.70;49.80
32706;DHT22;19094;50.972;3.538;2023-05-14T15:39:32;24.60;49.30
32706;DHT22;19094;50.972;3.538;2023-05-14T15:41:58;24.60;50.20
32706;DHT22;19094;50.972;3.538;2023-05-14T15:44:24;24.60;49.20